sensor_id;sensor_type;location;lat;lon;timestamp;temperature;humidity
40756;DHT22;26461;45.630;9.418;2022-08-19T00:02:29;20.90;99.90
40756;DHT22;26461;45.630;9.418;2022-08-19T00:05:39;20.90;99.90
40756;DHT22;26461;45.630;9.418;2022-08-19T00:08:51;20.90;99.90
40756;DHT22;26461;45.630;9.418;2022-08-19T00:12:02;20.90;99.90
40756;DHT22;26461;45.630;9.418;2022-08-19T00:15:14;21.00;99.90
40756;DHT22;26461;45.630;9.418;2022-08-19T00:18:24;21.00;99.90
40756;DHT22;26461;45.630;9.418;2022-08-19T00:21:35;21.00;99.90
40756;DHT22;26461;45.630;9.418;2022-08-19T00:24:49;21.10;99.90
40756;DHT22;26461;45.630;9.418;2022-08-19T00:27:59;21.10;99.90
40756;DHT22;26461;45.630;9.418;2022-08-19T00:31:09;21.10;99.90
40756;DHT22;26461;45.630;9.418;2022-08-19T00:34:19;21.10;99.90
40756;DHT22;26461;45.630;9.418;2022-08-19T00:37:30;21.10;99.90
40756;DHT22;26461;45.630;9.418;2022-08-19T00:40:43;21.10;99.90
40756;DHT22;26461;45.630;9.418;2022-08-19T00:44:20;21.10;99.90
40756;DHT22;26461;45.630;9.418;2022-08-19T00:47:30;21.10;99.90
40756;DHT22;26461;45.630;9.418;2022-08-19T00:50:41;21.10;99.90
40756;DHT22;26461;45.630;9.418;2022-08-19T00:53:54;21.10;99.90
40756;DHT22;26461;45.630;9.418;2022-08-19T00:57:08;21.10;99.90
40756;DHT22;26461;45.630;9.418;2022-08-19T01:00:19;21.10;99.90
40756;DHT22;26461;45.630;9.418;2022-08-19T01:03:31;21.10;99.90
40756;DHT22;26461;45.630;9.418;2022-08-19T01:06:41;21.00;99.90
40756;DHT22;26461;45.630;9.418;2022-08-19T01:09:51;21.00;99.90
40756;DHT22;26461;45.630;9.418;2022-08-19T01:13:02;21.00;99.90
40756;DHT22;26461;45.630;9.418;2022-08-19T01:16:13;21.00;99.90
40756;DHT22;26461;45.630;9.418;2022-08-19T01:19:29;20.90;99.90
40756;DHT22;26461;45.630;9.418;2022-08-19T01:22:51;21.00;99.90
40756;DHT22;26461;45.630;9.418;2022-08-19T01:26:02;21.00;99.90
40756;DHT22;26461;45.630;9.418;2022-08-19T01:29:12;21.00;99.90
40756;DHT22;26461;45.630;9.418;2022-08-19T01:32:23;21.00;99.90
40756;DHT22;26461;45.630;9.418;2022-08-19T01:35:35;21.00;99.90
40756;DHT22;26461;45.630;9.418;2022-08-19T01:38:45;21.00;99.90
40756;DHT22;26461;45.630;9.418;2022-08-19T01:41:55;21.00;99.90
40756;DHT22;26461;45.630;9.418;2022-08-19T01:45:06;21.00;99.90
40756;DHT22;26461;45.630;9.418;2022-08-19T01:48:16;21.00;99.90
40756;DHT22;26461;45.630;9.418;2022-08-19T01:51:27;21.00;99.90
40756;DHT22;26461;45.630;9.418;2022-08-19T01:54:37;21.00;99.90
40756;DHT22;26461;45.630;9.418;2022-08-19T01:57:53;21.10;99.90
40756;DHT22;26461;45.630;9.418;2022-08-19T02:00:59;21.10;99.90
40756;DHT22;26461;45.630;9.418;2022-08-19T02:04:09;21.10;99.90
40756;DHT22;26461;45.630;9.418;2022-08-19T02:07:20;21.10;99.90
40756;DHT22;26461;45.630;9.418;2022-08-19T02:10:31;21.10;99.90
40756;DHT22;26461;45.630;9.418;2022-08-19T02:13:41;21.10;99.90
40756;DHT22;26461;45.630;9.418;2022-08-19T02:16:51;21.10;99.90
40756;DHT22;26461;45.630;9.418;2022-08-19T02:20:01;21.10;99.90
40756;DHT22;26461;45.630;9.418;2022-08-19T02:23:12;21.10;99.90
40756;DHT22;26461;45.630;9.418;2022-08-19T02:26:18;21.10;99.90
40756;DHT22;26461;45.630;9.418;2022-08-19T02:29:29;21.10;99.90
40756;DHT22;26461;45.630;9.418;2022-08-19T02:32:38;21.20;99.90
40756;DHT22;26461;45.630;9.418;2022-08-19T02:35:48;21.20;99.90
40756;DHT22;26461;45.630;9.418;2022-08-19T02:38:58;21.20;99.90
40756;DHT22;26461;45.630;9.418;2022-08-19T02:42:08;21.20;99.90
40756;DHT22;26461;45.630;9.418;2022-08-19T02:45:19;21.20;99.90
40756;DHT22;26461;45.630;9.418;2022-08-19T02:48:29;21.20;99.90
40756;DHT22;26461;45.630;9.418;2022-08-19T02:51:41;21.20;99.90
40756;DHT22;26461;45.630;9.418;2022-08-19T02:54:51;21.20;99.90
40756;DHT22;26461;45.630;9.418;2022-08-19T02:58:01;21.20;99.90
40756;DHT22;26461;45.630;9.418;2022-08-19T03:01:29;21.20;99.90
40756;DHT22;26461;45.630;9.418;2022-08-19T03:04:39;21.20;99.90
40756;DHT22;26461;45.630;9.418;2022-08-19T03:07:51;21.20;99.90
40756;DHT22;26461;45.630;9.418;2022-08-19T03:11:00;21.20;99.90
40756;DHT22;26461;45.630;9.418;2022-08-19T03:14:10;21.20;99.90
40756;DHT22;26461;45.630;9.418;2022-08-19T03:17:20;21.20;99.90
40756;DHT22;26461;45.630;9.418;2022-08-19T03:20:30;21.20;99.90
40756;DHT22;26461;45.630;9.418;2022-08-19T03:23:40;21.10;99.90
40756;DHT22;26461;45.630;9.418;2022-08-19T03:26:53;21.10;99.90
40756;DHT22;26461;45.630;9.418;2022-08-19T03:30:07;21.10;99.90
40756;DHT22;26461;45.630;9.418;2022-08-19T03:33:17;21.10;99.90
40756;DHT22;26461;45.630;9.418;2022-08-19T03:36:27;21.10;99.90
40756;DHT22;26461;45.630;9.418;2022-08-19T03:39:38;21.10;99.90
40756;DHT22;26461;45.630;9.418;2022-08-19T03:42:48;21.00;99.90
40756;DHT22;26461;45.630;9.418;2022-08-19T03:46:04;21.00;99.90
40756;DHT22;26461;45.630;9.418;2022-08-19T03:49:15;21.00;99.90
40756;DHT22;26461;45.630;9.418;2022-08-19T03:52:25;21.00;99.90
40756;DHT22;26461;45.630;9.418;2022-08-19T03:55:30;21.00;99.90
40756;DHT22;26461;45.630;9.418;2022-08-19T03:58:35;21.00;99.90
40756;DHT22;26461;45.630;9.418;2022-08-19T04:01:47;21.00;99.90
40756;DHT22;26461;45.630;9.418;2022-08-19T04:04:56;21.00;99.90
40756;DHT22;26461;45.630;9.418;2022-08-19T04:08:07;21.00;99.90
40756;DHT22;26461;45.630;9.418;2022-08-19T04:11:22;21.00;99.90
40756;DHT22;26461;45.630;9.418;2022-08-19T04:14:32;20.90;99.90
40756;DHT22;26461;45.630;9.418;2022-08-19T04:17:43;20.90;99.90
40756;DHT22;26461;45.630;9.418;2022-08-19T04:20:53;20.90;99.90
40756;DHT22;26461;45.630;9.418;2022-08-19T04:24:03;20.90;99.90
40756;DHT22;26461;45.630;9.418;2022-08-19T04:27:13;20.90;99.90
40756;DHT22;26461;45.630;9.418;2022-08-19T04:30:19;20.90;99.90
40756;DHT22;26461;45.630;9.418;2022-08-19T04:33:31;20.90;99.90
40756;DHT22;26461;45.630;9.418;2022-08-19T04:36:38;20.90;99.90
40756;DHT22;26461;45.630;9.418;2022-08-19T04:39:49;20.90;99.90
40756;DHT22;26461;45.630;9.418;2022-08-19T04:43:17;20.80;99.90
40756;DHT22;26461;45.630;9.418;2022-08-19T04:46:27;20.80;99.90
40756;DHT22;26461;45.630;9.418;2022-08-19T04:49:39;20.80;99.90
40756;DHT22;26461;45.630;9.418;2022-08-19T04:52:51;20.80;99.90
40756;DHT22;26461;45.630;9.418;2022-08-19T04:55:57;20.80;99.90
40756;DHT22;26461;45.630;9.418;2022-08-19T04:59:09;20.80;99.90
40756;DHT22;26461;45.630;9.418;2022-08-19T05:02:20;20.70;99.90
40756;DHT22;26461;45.630;9.418;2022-08-19T05:05:25;20.70;99.90
40756;DHT22;26461;45.630;9.418;2022-08-19T05:08:29;20.70;99.90
40756;DHT22;26461;45.630;9.418;2022-08-19T05:11:40;20.70;99.90
40756;DHT22;26461;45.630;9.418;2022-08-19T05:14:50;20.70;99.90
40756;DHT22;26461;45.630;9.418;2022-08-19T05:18:01;20.60;99.90
40756;DHT22;26461;45.630;9.418;2022-08-19T05:21:30;20.60;99.90
40756;DHT22;26461;45.630;9.418;2022-08-19T05:24:59;20.60;99.90
40756;DHT22;26461;45.630;9.418;2022-08-19T05:28:10;20.60;99.90
40756;DHT22;26461;45.630;9.418;2022-08-19T05:31:21;20.60;99.90
40756;DHT22;26461;45.630;9.418;2022-08-19T05:34:28;20.60;99.90
40756;DHT22;26461;45.630;9.418;2022-08-19T05:37:38;20.60;99.90
40756;DHT22;26461;45.630;9.418;2022-08-19T05:40:49;20.60;99.90
40756;DHT22;26461;45.630;9.418;2022-08-19T05:44:02;20.60;99.90
40756;DHT22;26461;45.630;9.418;2022-08-19T05:47:13;20.60;99.90
40756;DHT22;26461;45.630;9.418;2022-08-19T05:50:24;20.60;99.90
40756;DHT22;26461;45.630;9.418;2022-08-19T05:53:38;20.60;99.90
40756;DHT22;26461;45.630;9.418;2022-08-19T05:56:48;20.60;99.90
40756;DHT22;26461;45.630;9.418;2022-08-19T06:00:00;20.60;99.90
40756;DHT22;26461;45.630;9.418;2022-08-19T06:03:15;20.70;99.90
40756;DHT22;26461;45.630;9.418;2022-08-19T06:06:26;20.70;99.90
40756;DHT22;26461;45.630;9.418;2022-08-19T06:09:36;20.70;99.90
40756;DHT22;26461;45.630;9.418;2022-08-19T06:12:48;20.70;99.90
40756;DHT22;26461;45.630;9.418;2022-08-19T06:15:58;20.70;99.90
40756;DHT22;26461;45.630;9.418;2022-08-19T06:19:06;20.70;99.90
40756;DHT22;26461;45.630;9.418;2022-08-19T06:22:17;20.70;99.90
40756;DHT22;26461;45.630;9.418;2022-08-19T06:25:27;20.70;99.90
40756;DHT22;26461;45.630;9.418;2022-08-19T06:28:38;20.80;99.90
40756;DHT22;26461;45.630;9.418;2022-08-19T06:31:59;20.80;99.90
40756;DHT22;26461;45.630;9.418;2022-08-19T06:35:09;20.90;99.90
40756;DHT22;26461;45.630;9.418;2022-08-19T06:38:17;20.90;99.90
40756;DHT22;26461;45.630;9.418;2022-08-19T06:41:29;21.00;99.90
40756;DHT22;26461;45.630;9.418;2022-08-19T06:44:41;21.00;99.90
40756;DHT22;26461;45.630;9.418;2022-08-19T06:47:52;21.10;99.90
40756;DHT22;26461;45.630;9.418;2022-08-19T06:51:05;21.10;99.90
40756;DHT22;26461;45.630;9.418;2022-08-19T06:54:10;21.20;99.90
40756;DHT22;26461;45.630;9.418;2022-08-19T06:57:15;21.20;99.90
40756;DHT22;26461;45.630;9.418;2022-08-19T07:00:26;21.30;99.90
40756;DHT22;26461;45.630;9.418;2022-08-19T07:03:34;21.30;99.90
40756;DHT22;26461;45.630;9.418;2022-08-19T07:06:46;21.40;99.90
40756;DHT22;26461;45.630;9.418;2022-08-19T07:09:56;21.40;99.90
40756;DHT22;26461;45.630;9.418;2022-08-19T07:13:06;21.40;99.90
40756;DHT22;26461;45.630;9.418;2022-08-19T07:16:17;21.50;99.90
40756;DHT22;26461;45.630;9.418;2022-08-19T07:19:29;21.50;99.90
40756;DHT22;26461;45.630;9.418;2022-08-19T07:22:39;21.50;99.90
40756;DHT22;26461;45.630;9.418;2022-08-19T07:25:44;21.60;99.90
40756;DHT22;26461;45.630;9.418;2022-08-19T07:28:50;21.60;99.90
40756;DHT22;26461;45.630;9.418;2022-08-19T07:32:05;21.60;99.90
40756;DHT22;26461;45.630;9.418;2022-08-19T07:35:16;21.50;99.90
40756;DHT22;26461;45.630;9.418;2022-08-19T07:38:32;21.50;99.90
40756;DHT22;26461;45.630;9.418;2022-08-19T07:41:43;21.60;99.90
40756;DHT22;26461;45.630;9.418;2022-08-19T07:44:54;21.60;99.90
40756;DHT22;26461;45.630;9.418;2022-08-19T07:48:05;21.60;99.90
40756;DHT22;26461;45.630;9.418;2022-08-19T07:51:18;21.60;99.90
40756;DHT22;26461;45.630;9.418;2022-08-19T07:54:31;21.60;99.90
40756;DHT22;26461;45.630;9.418;2022-08-19T07:57:43;21.50;99.90
40756;DHT22;26461;45.630;9.418;2022-08-19T08:00:53;21.50;99.90
40756;DHT22;26461;45.630;9.418;2022-08-19T08:04:03;21.50;99.90
40756;DHT22;26461;45.630;9.418;2022-08-19T08:07:32;21.50;99.90
40756;DHT22;26461;45.630;9.418;2022-08-19T08:11:04;21.60;99.90
40756;DHT22;26461;45.630;9.418;2022-08-19T08:14:23;21.60;99.90
40756;DHT22;26461;45.630;9.418;2022-08-19T08:17:33;21.70;99.90
40756;DHT22;26461;45.630;9.418;2022-08-19T08:20:46;21.70;99.90
40756;DHT22;26461;45.630;9.418;2022-08-19T08:23:56;21.80;99.90
40756;DHT22;26461;45.630;9.418;2022-08-19T08:27:08;21.90;99.90
40756;DHT22;26461;45.630;9.418;2022-08-19T08:30:22;22.10;99.90
40756;DHT22;26461;45.630;9.418;2022-08-19T08:33:33;22.10;99.90
40756;DHT22;26461;45.630;9.418;2022-08-19T08:36:44;22.20;99.90
40756;DHT22;26461;45.630;9.418;2022-08-19T08:39:56;22.30;99.90
40756;DHT22;26461;45.630;9.418;2022-08-19T08:43:19;22.30;99.90
40756;DHT22;26461;45.630;9.418;2022-08-19T08:46:43;22.40;99.90
40756;DHT22;26461;45.630;9.418;2022-08-19T08:50:03;22.40;99.90
40756;DHT22;26461;45.630;9.418;2022-08-19T08:53:17;22.40;99.90
40756;DHT22;26461;45.630;9.418;2022-08-19T08:56:29;22.40;99.90
40756;DHT22;26461;45.630;9.418;2022-08-19T08:59:41;22.30;99.90
40756;DHT22;26461;45.630;9.418;2022-08-19T09:02:53;22.30;99.90
40756;DHT22;26461;45.630;9.418;2022-08-19T09:06:17;22.30;99.90
40756;DHT22;26461;45.630;9.418;2022-08-19T09:09:40;22.30;99.90
40756;DHT22;26461;45.630;9.418;2022-08-19T09:16:24;22.20;99.90
40756;DHT22;26461;45.630;9.418;2022-08-19T09:19:32;22.20;99.90
40756;DHT22;26461;45.630;9.418;2022-08-19T09:22:38;22.30;99.90
40756;DHT22;26461;45.630;9.418;2022-08-19T09:25:49;22.30;99.90
40756;DHT22;26461;45.630;9.418;2022-08-19T09:28:59;22.30;99.90
40756;DHT22;26461;45.630;9.418;2022-08-19T09:32:09;22.40;99.90
40756;DHT22;26461;45.630;9.418;2022-08-19T09:35:24;22.40;99.90
40756;DHT22;26461;45.630;9.418;2022-08-19T09:38:40;22.40;99.90
40756;DHT22;26461;45.630;9.418;2022-08-19T09:41:55;22.50;99.90
40756;DHT22;26461;45.630;9.418;2022-08-19T09:45:01;22.50;99.90
40756;DHT22;26461;45.630;9.418;2022-08-19T09:48:14;22.50;99.90
40756;DHT22;26461;45.630;9.418;2022-08-19T09:51:22;22.50;99.90
40756;DHT22;26461;45.630;9.418;2022-08-19T09:54:28;22.50;99.90
40756;DHT22;26461;45.630;9.418;2022-08-19T09:57:40;22.50;99.90
40756;DHT22;26461;45.630;9.418;2022-08-19T10:00:50;22.50;99.90
40756;DHT22;26461;45.630;9.418;2022-08-19T10:04:01;22.50;99.90
40756;DHT22;26461;45.630;9.418;2022-08-19T10:07:15;22.50;99.90
40756;DHT22;26461;45.630;9.418;2022-08-19T10:10:27;22.50;99.90
40756;DHT22;26461;45.630;9.418;2022-08-19T10:13:37;22.60;99.90
40756;DHT22;26461;45.630;9.418;2022-08-19T10:16:45;22.70;99.90
40756;DHT22;26461;45.630;9.418;2022-08-19T10:19:55;22.80;99.90
40756;DHT22;26461;45.630;9.418;2022-08-19T10:23:09;22.90;99.90
40756;DHT22;26461;45.630;9.418;2022-08-19T10:26:22;23.00;99.90
40756;DHT22;26461;45.630;9.418;2022-08-19T10:29:32;23.10;99.90
40756;DHT22;26461;45.630;9.418;2022-08-19T10:32:38;23.10;99.90
40756;DHT22;26461;45.630;9.418;2022-08-19T10:36:06;23.10;99.90
40756;DHT22;26461;45.630;9.418;2022-08-19T10:39:16;23.20;99.90
40756;DHT22;26461;45.630;9.418;2022-08-19T10:42:21;23.30;99.90
40756;DHT22;26461;45.630;9.418;2022-08-19T10:45:26;23.30;99.90
40756;DHT22;26461;45.630;9.418;2022-08-19T10:48:32;23.40;99.90
40756;DHT22;26461;45.630;9.418;2022-08-19T10:51:42;23.40;99.90
40756;DHT22;26461;45.630;9.418;2022-08-19T10:59:25;23.40;99.90
40756;DHT22;26461;45.630;9.418;2022-08-19T11:03:04;23.50;99.90
40756;DHT22;26461;45.630;9.418;2022-08-19T11:06:13;23.50;99.90
40756;DHT22;26461;45.630;9.418;2022-08-19T11:09:26;23.60;99.90
40756;DHT22;26461;45.630;9.418;2022-08-19T11:16:45;23.60;99.90
40756;DHT22;26461;45.630;9.418;2022-08-19T11:19:52;23.70;99.90
40756;DHT22;26461;45.630;9.418;2022-08-19T11:23:01;23.70;99.90
40756;DHT22;26461;45.630;9.418;2022-08-19T11:26:12;23.80;99.90
40756;DHT22;26461;45.630;9.418;2022-08-19T11:29:21;23.90;99.90
40756;DHT22;26461;45.630;9.418;2022-08-19T11:32:35;23.90;99.90
40756;DHT22;26461;45.630;9.418;2022-08-19T11:35:45;24.00;99.90
40756;DHT22;26461;45.630;9.418;2022-08-19T11:38:56;24.00;99.90
40756;DHT22;26461;45.630;9.418;2022-08-19T11:42:06;24.00;99.90
40756;DHT22;26461;45.630;9.418;2022-08-19T11:45:37;23.90;99.90
40756;DHT22;26461;45.630;9.418;2022-08-19T11:48:48;23.90;99.90
40756;DHT22;26461;45.630;9.418;2022-08-19T11:52:00;23.90;99.90
40756;DHT22;26461;45.630;9.418;2022-08-19T11:55:11;23.90;99.90
40756;DHT22;26461;45.630;9.418;2022-08-19T11:58:21;24.00;99.90
40756;DHT22;26461;45.630;9.418;2022-08-19T12:01:32;24.00;99.90
40756;DHT22;26461;45.630;9.418;2022-08-19T12:04:42;24.10;99.90
40756;DHT22;26461;45.630;9.418;2022-08-19T12:07:52;24.10;99.90
40756;DHT22;26461;45.630;9.418;2022-08-19T12:11:04;24.20;99.90
40756;DHT22;26461;45.630;9.418;2022-08-19T12:14:17;24.20;99.90
40756;DHT22;26461;45.630;9.418;2022-08-19T12:17:28;24.30;99.90
40756;DHT22;26461;45.630;9.418;2022-08-19T12:20:40;24.40;99.80
40756;DHT22;26461;45.630;9.418;2022-08-19T12:23:50;24.40;99.50
40756;DHT22;26461;45.630;9.418;2022-08-19T12:27:01;24.40;99.20
40756;DHT22;26461;45.630;9.418;2022-08-19T12:30:12;24.40;99.70
40756;DHT22;26461;45.630;9.418;2022-08-19T12:33:19;24.50;99.80
40756;DHT22;26461;45.630;9.418;2022-08-19T12:36:34;24.60;99.40
40756;DHT22;26461;45.630;9.418;2022-08-19T12:39:44;24.50;99.80
40756;DHT22;26461;45.630;9.418;2022-08-19T12:42:55;24.60;99.90
40756;DHT22;26461;45.630;9.418;2022-08-19T12:46:06;24.70;99.60
40756;DHT22;26461;45.630;9.418;2022-08-19T12:49:16;24.80;99.30
40756;DHT22;26461;45.630;9.418;2022-08-19T12:52:26;24.90;99.00
40756;DHT22;26461;45.630;9.418;2022-08-19T12:55:38;24.90;99.10
40756;DHT22;26461;45.630;9.418;2022-08-19T12:58:47;25.00;99.10
40756;DHT22;26461;45.630;9.418;2022-08-19T13:01:57;25.10;98.30
40756;DHT22;26461;45.630;9.418;2022-08-19T13:05:09;25.10;98.50
40756;DHT22;26461;45.630;9.418;2022-08-19T13:08:20;25.20;98.50
40756;DHT22;26461;45.630;9.418;2022-08-19T13:11:30;25.30;98.10
40756;DHT22;26461;45.630;9.418;2022-08-19T13:14:43;25.30;98.40
40756;DHT22;26461;45.630;9.418;2022-08-19T13:17:56;25.40;98.50
40756;DHT22;26461;45.630;9.418;2022-08-19T13:21:09;25.50;98.00
40756;DHT22;26461;45.630;9.418;2022-08-19T13:24:21;25.60;97.60
40756;DHT22;26461;45.630;9.418;2022-08-19T13:27:31;25.60;97.30
40756;DHT22;26461;45.630;9.418;2022-08-19T13:30:41;25.70;97.60
40756;DHT22;26461;45.630;9.418;2022-08-19T13:34:09;25.80;97.60
40756;DHT22;26461;45.630;9.418;2022-08-19T13:37:20;25.90;97.20
40756;DHT22;26461;45.630;9.418;2022-08-19T13:40:52;26.00;96.90
40756;DHT22;26461;45.630;9.418;2022-08-19T13:44:03;26.00;96.90
40756;DHT22;26461;45.630;9.418;2022-08-19T13:47:14;26.00;96.60
40756;DHT22;26461;45.630;9.418;2022-08-19T13:50:27;26.10;96.70
40756;DHT22;26461;45.630;9.418;2022-08-19T13:53:38;26.10;96.40
40756;DHT22;26461;45.630;9.418;2022-08-19T13:56:49;26.20;96.60
40756;DHT22;26461;45.630;9.418;2022-08-19T13:59:58;26.20;96.10
40756;DHT22;26461;45.630;9.418;2022-08-19T14:03:09;26.30;96.20
40756;DHT22;26461;45.630;9.418;2022-08-19T14:06:14;26.40;96.10
40756;DHT22;26461;45.630;9.418;2022-08-19T14:09:24;26.50;95.80
40756;DHT22;26461;45.630;9.418;2022-08-19T14:12:34;26.60;95.50
40756;DHT22;26461;45.630;9.418;2022-08-19T14:15:44;26.70;95.20
40756;DHT22;26461;45.630;9.418;2022-08-19T14:18:55;26.90;94.80
40756;DHT22;26461;45.630;9.418;2022-08-19T14:22:05;26.90;93.70
40756;DHT22;26461;45.630;9.418;2022-08-19T14:25:18;27.00;93.80
40756;DHT22;26461;45.630;9.418;2022-08-19T14:28:29;27.10;93.90
40756;DHT22;26461;45.630;9.418;2022-08-19T14:31:39;27.20;93.50
40756;DHT22;26461;45.630;9.418;2022-08-19T14:34:50;27.30;93.20
40756;DHT22;26461;45.630;9.418;2022-08-19T14:37:57;27.30;92.70
40756;DHT22;26461;45.630;9.418;2022-08-19T14:44:19;27.40;92.70
40756;DHT22;26461;45.630;9.418;2022-08-19T14:47:29;27.50;92.70
40756;DHT22;26461;45.630;9.418;2022-08-19T14:50:39;27.60;92.10
40756;DHT22;26461;45.630;9.418;2022-08-19T14:53:50;27.60;91.50
40756;DHT22;26461;45.630;9.418;2022-08-19T14:57:00;27.60;90.90
40756;DHT22;26461;45.630;9.418;2022-08-19T15:00:11;27.70;90.30
40756;DHT22;26461;45.630;9.418;2022-08-19T15:03:22;27.70;90.10
40756;DHT22;26461;45.630;9.418;2022-08-19T15:06:32;27.80;90.60
40756;DHT22;26461;45.630;9.418;2022-08-19T15:09:37;28.00;89.30
40756;DHT22;26461;45.630;9.418;2022-08-19T15:12:47;28.10;90.00
40756;DHT22;26461;45.630;9.418;2022-08-19T15:15:57;28.40;89.40
40756;DHT22;26461;45.630;9.418;2022-08-19T15:19:08;28.50;87.00
40756;DHT22;26461;45.630;9.418;2022-08-19T15:22:18;28.50;85.80
40756;DHT22;26461;45.630;9.418;2022-08-19T15:25:28;28.60;84.70
40756;DHT22;26461;45.630;9.418;2022-08-19T15:28:39;28.80;84.10
40756;DHT22;26461;45.630;9.418;2022-08-19T15:31:50;28.90;84.20
40756;DHT22;26461;45.630;9.418;2022-08-19T15:35:00;28.80;83.40
40756;DHT22;26461;45.630;9.418;2022-08-19T15:38:13;28.70;83.80
40756;DHT22;26461;45.630;9.418;2022-08-19T15:41:29;28.70;84.00
40756;DHT22;26461;45.630;9.418;2022-08-19T15:44:40;28.60;84.40
40756;DHT22;26461;45.630;9.418;2022-08-19T15:47:50;28.50;85.00
40756;DHT22;26461;45.630;9.418;2022-08-19T15:51:00;28.50;85.30
40756;DHT22;26461;45.630;9.418;2022-08-19T15:54:13;28.60;85.90
40756;DHT22;26461;45.630;9.418;2022-08-19T15:57:23;28.70;82.90
40756;DHT22;26461;45.630;9.418;2022-08-19T16:00:36;29.00;83.40
40756;DHT22;26461;45.630;9.418;2022-08-19T16:04:06;29.30;82.30
40756;DHT22;26461;45.630;9.418;2022-08-19T16:07:31;29.70;80.00
40756;DHT22;26461;45.630;9.418;2022-08-19T16:10:41;30.00;79.30
40756;DHT22;26461;45.630;9.418;2022-08-19T16:13:52;30.30;79.40
40756;DHT22;26461;45.630;9.418;2022-08-19T16:17:03;30.60;77.70
40756;DHT22;26461;45.630;9.418;2022-08-19T16:20:14;30.80;75.30
40756;DHT22;26461;45.630;9.418;2022-08-19T16:23:25;30.90;73.70
40756;DHT22;26461;45.630;9.418;2022-08-19T16:26:38;31.00;74.20
40756;DHT22;26461;45.630;9.418;2022-08-19T16:29:48;31.10;73.90
40756;DHT22;26461;45.630;9.418;2022-08-19T16:32:59;31.10;72.90
40756;DHT22;26461;45.630;9.418;2022-08-19T16:36:10;31.20;73.00
40756;DHT22;26461;45.630;9.418;2022-08-19T16:39:20;31.30;73.10
40756;DHT22;26461;45.630;9.418;2022-08-19T16:42:30;31.40;72.70
40756;DHT22;26461;45.630;9.418;2022-08-19T16:45:41;31.60;70.50
40756;DHT22;26461;45.630;9.418;2022-08-19T16:48:52;31.60;69.70
40756;DHT22;26461;45.630;9.418;2022-08-19T16:52:02;31.50;70.10
40756;DHT22;26461;45.630;9.418;2022-08-19T16:55:14;31.40;70.30
40756;DHT22;26461;45.630;9.418;2022-08-19T16:58:26;31.20;70.40
40756;DHT22;26461;45.630;9.418;2022-08-19T17:01:38;31.00;71.20
40756;DHT22;26461;45.630;9.418;2022-08-19T17:04:52;30.70;71.30
40756;DHT22;26461;45.630;9.418;2022-08-19T17:08:02;30.50;73.10
40756;DHT22;26461;45.630;9.418;2022-08-19T17:11:12;30.30;73.70
40756;DHT22;26461;45.630;9.418;2022-08-19T17:14:24;30.10;74.60
40756;DHT22;26461;45.630;9.418;2022-08-19T17:17:34;29.90;75.60
40756;DHT22;26461;45.630;9.418;2022-08-19T17:20:46;29.70;76.10
40756;DHT22;26461;45.630;9.418;2022-08-19T17:23:57;29.50;76.80
40756;DHT22;26461;45.630;9.418;2022-08-19T17:27:08;29.30;77.30
40756;DHT22;26461;45.630;9.418;2022-08-19T17:30:13;29.10;77.70
40756;DHT22;26461;45.630;9.418;2022-08-19T17:33:24;29.00;78.20
40756;DHT22;26461;45.630;9.418;2022-08-19T17:36:35;28.90;78.90
40756;DHT22;26461;45.630;9.418;2022-08-19T17:39:45;28.70;79.60
40756;DHT22;26461;45.630;9.418;2022-08-19T17:42:55;28.50;80.70
40756;DHT22;26461;45.630;9.418;2022-08-19T17:46:05;28.40;82.20
40756;DHT22;26461;45.630;9.418;2022-08-19T17:49:23;28.30;83.80
40756;DHT22;26461;45.630;9.418;2022-08-19T17:52:34;28.10;85.80
40756;DHT22;26461;45.630;9.418;2022-08-19T17:55:45;28.00;87.20
40756;DHT22;26461;45.630;9.418;2022-08-19T17:58:51;28.00;88.10
40756;DHT22;26461;45.630;9.418;2022-08-19T18:02:03;27.90;89.00
40756;DHT22;26461;45.630;9.418;2022-08-19T18:05:13;27.70;90.00
40756;DHT22;26461;45.630;9.418;2022-08-19T18:08:23;27.60;90.60
40756;DHT22;26461;45.630;9.418;2022-08-19T18:11:33;27.50;90.90
40756;DHT22;26461;45.630;9.418;2022-08-19T18:14:43;27.40;91.70
40756;DHT22;26461;45.630;9.418;2022-08-19T18:17:53;27.30;91.80
40756;DHT22;26461;45.630;9.418;2022-08-19T18:21:05;27.20;92.20
40756;DHT22;26461;45.630;9.418;2022-08-19T18:24:15;27.10;92.40
40756;DHT22;26461;45.630;9.418;2022-08-19T18:27:26;27.00;93.00
40756;DHT22;26461;45.630;9.418;2022-08-19T18:30:36;26.90;93.40
40756;DHT22;26461;45.630;9.418;2022-08-19T18:33:47;26.80;93.90
40756;DHT22;26461;45.630;9.418;2022-08-19T18:37:00;26.70;94.40
40756;DHT22;26461;45.630;9.418;2022-08-19T18:40:14;26.70;94.80
40756;DHT22;26461;45.630;9.418;2022-08-19T18:43:44;26.50;95.10
40756;DHT22;26461;45.630;9.418;2022-08-19T18:47:40;26.40;95.60
40756;DHT22;26461;45.630;9.418;2022-08-19T18:51:39;26.30;95.90
40756;DHT22;26461;45.630;9.418;2022-08-19T18:54:53;26.20;96.20
40756;DHT22;26461;45.630;9.418;2022-08-19T18:58:07;26.10;96.50
40756;DHT22;26461;45.630;9.418;2022-08-19T19:01:28;26.10;97.10
40756;DHT22;26461;45.630;9.418;2022-08-19T19:04:39;26.00;97.50
40756;DHT22;26461;45.630;9.418;2022-08-19T19:07:50;25.90;97.60
40756;DHT22;26461;45.630;9.418;2022-08-19T19:11:01;25.80;97.80
40756;DHT22;26461;45.630;9.418;2022-08-19T19:14:20;25.80;98.20
40756;DHT22;26461;45.630;9.418;2022-08-19T19:17:31;25.80;98.50
40756;DHT22;26461;45.630;9.418;2022-08-19T19:20:41;25.70;98.60
40756;DHT22;26461;45.630;9.418;2022-08-19T19:23:46;25.60;98.60
40756;DHT22;26461;45.630;9.418;2022-08-19T19:27:00;25.60;98.70
40756;DHT22;26461;45.630;9.418;2022-08-19T19:30:14;25.50;98.80
40756;DHT22;26461;45.630;9.418;2022-08-19T19:33:25;25.50;98.70
40756;DHT22;26461;45.630;9.418;2022-08-19T19:36:31;25.50;99.00
40756;DHT22;26461;45.630;9.418;2022-08-19T19:39:42;25.40;99.00
40756;DHT22;26461;45.630;9.418;2022-08-19T19:42:52;25.40;99.00
40756;DHT22;26461;45.630;9.418;2022-08-19T19:46:02;25.40;99.10
40756;DHT22;26461;45.630;9.418;2022-08-19T19:49:13;25.40;99.50
40756;DHT22;26461;45.630;9.418;2022-08-19T19:52:24;25.30;99.50
40756;DHT22;26461;45.630;9.418;2022-08-19T19:55:36;25.30;99.40
40756;DHT22;26461;45.630;9.418;2022-08-19T19:58:47;25.30;99.30
40756;DHT22;26461;45.630;9.418;2022-08-19T20:01:59;25.30;99.40
40756;DHT22;26461;45.630;9.418;2022-08-19T20:05:12;25.20;99.50
40756;DHT22;26461;45.630;9.418;2022-08-19T20:08:22;25.20;99.60
40756;DHT22;26461;45.630;9.418;2022-08-19T20:11:56;25.20;99.60
40756;DHT22;26461;45.630;9.418;2022-08-19T20:15:07;25.20;99.70
40756;DHT22;26461;45.630;9.418;2022-08-19T20:18:19;25.20;99.70
40756;DHT22;26461;45.630;9.418;2022-08-19T20:21:29;25.10;99.50
40756;DHT22;26461;45.630;9.418;2022-08-19T20:24:41;25.20;99.60
40756;DHT22;26461;45.630;9.418;2022-08-19T20:27:51;25.20;99.60